Eskridge, Kansas
Current Conditions -  °F | °C
As of 7:53 PM on Sunday 25 Jan 2015 (Local Time) from KFOE Reporting Station
Overcast Overcast  
Wind Chill:   Ceiling: 3100
Heat Index:   Visibility: 10mi
Dew Point: -1°   Wind: 10mph
Humidity: 65%   Direction: 330°NNW
Pressure: 30.1"   Gusts: NA
Location:  38.86°N, 96.11°W
Report Text: KFOE 260153Z 33009KT 10SM OVC031 05/M01 A3010 RMK AO2 SLP198 T00501011
Loading
Personal Weather Stations






























Interactive Weather Map New forecast layout! Learn more

10-Day Weather Forecast

Advertisements
Track Severe Weather on mobile